sensor_id;sensor_type;location;lat;lon;timestamp;temperature;humidity
356;DHT22;62514;48.112;11.566;2024-03-02T00:00:19;6.10;62.40
356;DHT22;62514;48.112;11.566;2024-03-02T00:02:48;6.10;62.70
356;DHT22;62514;48.112;11.566;2024-03-02T00:05:24;6.10;62.80
356;DHT22;62514;48.112;11.566;2024-03-02T00:07:55;6.10;62.70
356;DHT22;62514;48.112;11.566;2024-03-02T00:10:37;6.10;62.70
356;DHT22;62514;48.112;11.566;2024-03-02T00:13:06;6.10;63.10
356;DHT22;62514;48.112;11.566;2024-03-02T00:15:52;6.00;62.70
356;DHT22;62514;48.112;11.566;2024-03-02T00:18:20;6.00;63.10
356;DHT22;62514;48.112;11.566;2024-03-02T00:20:46;6.00;63.40
356;DHT22;62514;48.112;11.566;2024-03-02T00:23:16;6.00;63.50
356;DHT22;62514;48.112;11.566;2024-03-02T00:25:50;5.90;63.50
356;DHT22;62514;48.112;11.566;2024-03-02T00:28:24;5.90;63.60
356;DHT22;62514;48.112;11.566;2024-03-02T00:33:23;5.90;63.70
356;DHT22;62514;48.112;11.566;2024-03-02T00:35:50;5.90;63.50
356;DHT22;62514;48.112;11.566;2024-03-02T00:38:16;5.80;63.70
356;DHT22;62514;48.112;11.566;2024-03-02T00:40:43;5.80;63.80
356;DHT22;62514;48.112;11.566;2024-03-02T00:43:43;5.80;64.30
356;DHT22;62514;48.112;11.566;2024-03-02T00:46:15;5.80;64.60
356;DHT22;62514;48.112;11.566;2024-03-02T00:48:56;5.80;64.40
356;DHT22;62514;48.112;11.566;2024-03-02T00:51:24;5.80;64.70
356;DHT22;62514;48.112;11.566;2024-03-02T00:53:52;5.80;65.20
356;DHT22;62514;48.112;11.566;2024-03-02T00:56:19;5.80;65.40
356;DHT22;62514;48.112;11.566;2024-03-02T00:58:47;5.80;65.40
356;DHT22;62514;48.112;11.566;2024-03-02T01:01:14;5.80;65.40
356;DHT22;62514;48.112;11.566;2024-03-02T01:03:40;5.70;65.50
356;DHT22;62514;48.112;11.566;2024-03-02T01:06:07;5.70;65.60
356;DHT22;62514;48.112;11.566;2024-03-02T01:08:34;5.70;66.00
356;DHT22;62514;48.112;11.566;2024-03-02T01:11:00;5.70;66.50
356;DHT22;62514;48.112;11.566;2024-03-02T01:13:26;5.70;67.00
356;DHT22;62514;48.112;11.566;2024-03-02T01:15:52;5.70;66.90
356;DHT22;62514;48.112;11.566;2024-03-02T01:18:19;5.70;67.00
356;DHT22;62514;48.112;11.566;2024-03-02T01:20:45;5.80;66.70
356;DHT22;62514;48.112;11.566;2024-03-02T01:23:11;5.80;66.60
356;DHT22;62514;48.112;11.566;2024-03-02T01:25:37;5.80;66.60
356;DHT22;62514;48.112;11.566;2024-03-02T01:28:04;5.80;66.20
356;DHT22;62514;48.112;11.566;2024-03-02T01:30:30;5.80;65.80
356;DHT22;62514;48.112;11.566;2024-03-02T01:32:56;5.80;65.50
356;DHT22;62514;48.112;11.566;2024-03-02T01:35:21;5.80;65.60
356;DHT22;62514;48.112;11.566;2024-03-02T01:37:47;5.80;65.40
356;DHT22;62514;48.112;11.566;2024-03-02T01:40:13;5.70;64.90
356;DHT22;62514;48.112;11.566;2024-03-02T01:42:40;5.80;64.80
356;DHT22;62514;48.112;11.566;2024-03-02T01:45:06;5.70;64.40
356;DHT22;62514;48.112;11.566;2024-03-02T01:47:33;5.70;64.70
356;DHT22;62514;48.112;11.566;2024-03-02T01:49:59;5.70;64.50
356;DHT22;62514;48.112;11.566;2024-03-02T01:52:27;5.70;64.70
356;DHT22;62514;48.112;11.566;2024-03-02T01:54:53;5.70;64.40
356;DHT22;62514;48.112;11.566;2024-03-02T01:57:19;5.80;64.20
356;DHT22;62514;48.112;11.566;2024-03-02T01:59:46;5.80;64.30
356;DHT22;62514;48.112;11.566;2024-03-02T02:02:16;5.80;64.70
356;DHT22;62514;48.112;11.566;2024-03-02T02:04:42;5.70;64.10
356;DHT22;62514;48.112;11.566;2024-03-02T02:07:09;5.70;64.30
356;DHT22;62514;48.112;11.566;2024-03-02T02:09:35;5.80;64.00
356;DHT22;62514;48.112;11.566;2024-03-02T02:12:01;5.80;63.80
356;DHT22;62514;48.112;11.566;2024-03-02T02:14:28;5.70;63.80
356;DHT22;62514;48.112;11.566;2024-03-02T02:16:54;5.70;63.90
356;DHT22;62514;48.112;11.566;2024-03-02T02:19:20;5.70;63.80
356;DHT22;62514;48.112;11.566;2024-03-02T02:21:46;5.70;63.80
356;DHT22;62514;48.112;11.566;2024-03-02T02:24:12;5.70;64.10
356;DHT22;62514;48.112;11.566;2024-03-02T02:26:39;5.70;63.90
356;DHT22;62514;48.112;11.566;2024-03-02T02:29:05;5.70;63.90
356;DHT22;62514;48.112;11.566;2024-03-02T02:31:41;5.80;64.00
356;DHT22;62514;48.112;11.566;2024-03-02T02:34:07;5.80;64.50
356;DHT22;62514;48.112;11.566;2024-03-02T02:36:34;5.80;64.60
356;DHT22;62514;48.112;11.566;2024-03-02T02:39:03;5.80;64.60
356;DHT22;62514;48.112;11.566;2024-03-02T02:41:30;5.80;64.70
356;DHT22;62514;48.112;11.566;2024-03-02T02:43:56;5.70;64.40
356;DHT22;62514;48.112;11.566;2024-03-02T02:46:22;5.70;64.20
356;DHT22;62514;48.112;11.566;2024-03-02T02:48:48;5.80;64.40
356;DHT22;62514;48.112;11.566;2024-03-02T02:51:14;5.80;64.90
356;DHT22;62514;48.112;11.566;2024-03-02T02:53:40;5.80;65.00
356;DHT22;62514;48.112;11.566;2024-03-02T02:56:07;5.80;64.90
356;DHT22;62514;48.112;11.566;2024-03-02T02:58:32;5.80;65.00
356;DHT22;62514;48.112;11.566;2024-03-02T03:00:58;5.90;65.20
356;DHT22;62514;48.112;11.566;2024-03-02T03:03:24;5.90;65.30
356;DHT22;62514;48.112;11.566;2024-03-02T03:05:50;5.90;65.40
356;DHT22;62514;48.112;11.566;2024-03-02T03:08:16;5.90;65.70
356;DHT22;62514;48.112;11.566;2024-03-02T03:10:42;5.90;64.80
356;DHT22;62514;48.112;11.566;2024-03-02T03:13:08;5.90;64.90
356;DHT22;62514;48.112;11.566;2024-03-02T03:15:35;5.90;65.50
356;DHT22;62514;48.112;11.566;2024-03-02T03:18:03;5.90;65.60
356;DHT22;62514;48.112;11.566;2024-03-02T03:20:29;5.90;65.70
356;DHT22;62514;48.112;11.566;2024-03-02T03:22:56;5.80;65.80
356;DHT22;62514;48.112;11.566;2024-03-02T03:25:22;5.80;67.10
356;DHT22;62514;48.112;11.566;2024-03-02T03:27:48;5.80;66.30
356;DHT22;62514;48.112;11.566;2024-03-02T03:30:14;5.80;66.00
356;DHT22;62514;48.112;11.566;2024-03-02T03:32:40;5.80;66.10
356;DHT22;62514;48.112;11.566;2024-03-02T03:35:07;5.80;66.60
356;DHT22;62514;48.112;11.566;2024-03-02T03:37:33;5.80;67.00
356;DHT22;62514;48.112;11.566;2024-03-02T03:40:00;5.80;67.00
356;DHT22;62514;48.112;11.566;2024-03-02T03:42:27;5.80;66.40
356;DHT22;62514;48.112;11.566;2024-03-02T03:44:53;5.80;66.50
356;DHT22;62514;48.112;11.566;2024-03-02T03:47:19;5.80;66.60
356;DHT22;62514;48.112;11.566;2024-03-02T03:49:46;5.80;66.70
356;DHT22;62514;48.112;11.566;2024-03-02T03:52:11;5.80;66.70
356;DHT22;62514;48.112;11.566;2024-03-02T03:54:37;5.80;66.80
356;DHT22;62514;48.112;11.566;2024-03-02T03:57:04;5.70;67.00
356;DHT22;62514;48.112;11.566;2024-03-02T03:59:30;5.70;67.00
356;DHT22;62514;48.112;11.566;2024-03-02T04:01:56;5.60;67.80
356;DHT22;62514;48.112;11.566;2024-03-02T04:04:22;5.60;68.40
356;DHT22;62514;48.112;11.566;2024-03-02T04:06:48;5.60;68.80
356;DHT22;62514;48.112;11.566;2024-03-02T04:09:14;5.60;69.00
356;DHT22;62514;48.112;11.566;2024-03-02T04:11:40;5.60;69.20
356;DHT22;62514;48.112;11.566;2024-03-02T04:14:06;5.70;68.80
356;DHT22;62514;48.112;11.566;2024-03-02T04:16:32;5.60;68.80
356;DHT22;62514;48.112;11.566;2024-03-02T04:18:58;5.60;69.50
356;DHT22;62514;48.112;11.566;2024-03-02T04:21:24;5.60;69.90
356;DHT22;62514;48.112;11.566;2024-03-02T04:23:50;5.60;70.10
356;DHT22;62514;48.112;11.566;2024-03-02T04:26:17;5.60;69.90
356;DHT22;62514;48.112;11.566;2024-03-02T04:28:47;5.60;70.00
356;DHT22;62514;48.112;11.566;2024-03-02T04:31:15;5.60;70.40
356;DHT22;62514;48.112;11.566;2024-03-02T04:33:41;5.70;70.80
356;DHT22;62514;48.112;11.566;2024-03-02T04:36:08;5.70;70.60
356;DHT22;62514;48.112;11.566;2024-03-02T04:38:38;5.70;71.00
356;DHT22;62514;48.112;11.566;2024-03-02T04:41:05;5.80;71.30
356;DHT22;62514;48.112;11.566;2024-03-02T04:43:34;5.70;71.00
356;DHT22;62514;48.112;11.566;2024-03-02T04:46:00;5.70;70.80
356;DHT22;62514;48.112;11.566;2024-03-02T04:48:26;5.60;70.70
356;DHT22;62514;48.112;11.566;2024-03-02T04:50:53;5.60;71.00
356;DHT22;62514;48.112;11.566;2024-03-02T04:53:19;5.60;71.20
356;DHT22;62514;48.112;11.566;2024-03-02T04:55:45;5.50;71.00
356;DHT22;62514;48.112;11.566;2024-03-02T04:58:19;5.50;71.80
356;DHT22;62514;48.112;11.566;2024-03-02T05:00:45;5.50;72.50
356;DHT22;62514;48.112;11.566;2024-03-02T05:03:12;5.60;72.50
356;DHT22;62514;48.112;11.566;2024-03-02T05:05:39;5.60;72.80
356;DHT22;62514;48.112;11.566;2024-03-02T05:08:05;5.60;72.20
356;DHT22;62514;48.112;11.566;2024-03-02T05:10:31;5.50;72.20
356;DHT22;62514;48.112;11.566;2024-03-02T05:12:57;5.50;72.80
356;DHT22;62514;48.112;11.566;2024-03-02T05:15:25;5.50;73.40
356;DHT22;62514;48.112;11.566;2024-03-02T05:17:51;5.60;73.50
356;DHT22;62514;48.112;11.566;2024-03-02T05:20:17;5.50;73.50
356;DHT22;62514;48.112;11.566;2024-03-02T05:22:43;5.60;73.50
356;DHT22;62514;48.112;11.566;2024-03-02T05:25:09;5.60;74.20
356;DHT22;62514;48.112;11.566;2024-03-02T05:27:37;5.60;73.50
356;DHT22;62514;48.112;11.566;2024-03-02T05:30:04;5.60;73.50
356;DHT22;62514;48.112;11.566;2024-03-02T05:32:32;5.70;73.60
356;DHT22;62514;48.112;11.566;2024-03-02T05:34:58;5.70;73.50
356;DHT22;62514;48.112;11.566;2024-03-02T05:37:24;5.80;73.50
356;DHT22;62514;48.112;11.566;2024-03-02T05:39:50;5.80;73.60
356;DHT22;62514;48.112;11.566;2024-03-02T05:42:16;5.80;73.60
356;DHT22;62514;48.112;11.566;2024-03-02T05:44:45;5.80;73.50
356;DHT22;62514;48.112;11.566;2024-03-02T05:47:10;5.80;73.50
356;DHT22;62514;48.112;11.566;2024-03-02T05:49:36;5.80;73.50
356;DHT22;62514;48.112;11.566;2024-03-02T05:52:02;5.90;73.70
356;DHT22;62514;48.112;11.566;2024-03-02T05:54:28;5.90;73.70
356;DHT22;62514;48.112;11.566;2024-03-02T05:56:54;5.80;73.30
356;DHT22;62514;48.112;11.566;2024-03-02T05:59:21;5.80;73.50
356;DHT22;62514;48.112;11.566;2024-03-02T06:01:47;5.80;73.50
356;DHT22;62514;48.112;11.566;2024-03-02T06:04:14;5.80;73.60
356;DHT22;62514;48.112;11.566;2024-03-02T06:06:40;5.80;73.50
356;DHT22;62514;48.112;11.566;2024-03-02T06:09:07;5.70;73.40
356;DHT22;62514;48.112;11.566;2024-03-02T06:11:39;5.70;73.60
356;DHT22;62514;48.112;11.566;2024-03-02T06:14:07;5.70;73.60
356;DHT22;62514;48.112;11.566;2024-03-02T06:16:33;5.80;73.60
356;DHT22;62514;48.112;11.566;2024-03-02T06:19:00;5.80;73.60
356;DHT22;62514;48.112;11.566;2024-03-02T06:21:27;5.80;73.70
356;DHT22;62514;48.112;11.566;2024-03-02T06:23:53;5.80;74.30
356;DHT22;62514;48.112;11.566;2024-03-02T06:26:19;5.80;73.60
356;DHT22;62514;48.112;11.566;2024-03-02T06:28:46;5.80;73.60
356;DHT22;62514;48.112;11.566;2024-03-02T06:31:12;5.80;73.60
356;DHT22;62514;48.112;11.566;2024-03-02T06:33:38;5.70;73.70
356;DHT22;62514;48.112;11.566;2024-03-02T06:36:05;5.70;73.70
356;DHT22;62514;48.112;11.566;2024-03-02T06:38:34;5.70;74.10
356;DHT22;62514;48.112;11.566;2024-03-02T06:41:00;5.70;74.50
356;DHT22;62514;48.112;11.566;2024-03-02T06:43:26;5.70;74.80
356;DHT22;62514;48.112;11.566;2024-03-02T06:45:52;5.70;75.10
356;DHT22;62514;48.112;11.566;2024-03-02T06:48:18;5.80;74.90
356;DHT22;62514;48.112;11.566;2024-03-02T06:50:48;5.80;75.10
356;DHT22;62514;48.112;11.566;2024-03-02T06:53:14;5.80;75.10
356;DHT22;62514;48.112;11.566;2024-03-02T06:55:46;5.80;75.60
356;DHT22;62514;48.112;11.566;2024-03-02T06:58:12;5.80;75.40
356;DHT22;62514;48.112;11.566;2024-03-02T07:00:38;5.80;75.70
356;DHT22;62514;48.112;11.566;2024-03-02T07:03:04;5.80;76.30
356;DHT22;62514;48.112;11.566;2024-03-02T07:05:31;5.70;76.70
356;DHT22;62514;48.112;11.566;2024-03-02T07:07:56;5.80;76.80
356;DHT22;62514;48.112;11.566;2024-03-02T07:10:23;5.80;76.60
356;DHT22;62514;48.112;11.566;2024-03-02T07:12:49;5.80;76.60
356;DHT22;62514;48.112;11.566;2024-03-02T07:15:15;5.90;77.00
356;DHT22;62514;48.112;11.566;2024-03-02T07:17:55;5.90;76.50
356;DHT22;62514;48.112;11.566;2024-03-02T07:20:21;5.80;76.60
356;DHT22;62514;48.112;11.566;2024-03-02T07:22:47;5.90;76.70
356;DHT22;62514;48.112;11.566;2024-03-02T07:25:14;5.90;77.00
356;DHT22;62514;48.112;11.566;2024-03-02T07:27:40;5.90;77.30
356;DHT22;62514;48.112;11.566;2024-03-02T07:30:07;5.90;77.30
356;DHT22;62514;48.112;11.566;2024-03-02T07:32:33;6.00;77.20
356;DHT22;62514;48.112;11.566;2024-03-02T07:34:59;6.00;77.30
356;DHT22;62514;48.112;11.566;2024-03-02T07:37:27;6.00;76.90
356;DHT22;62514;48.112;11.566;2024-03-02T07:39:53;6.10;76.90
356;DHT22;62514;48.112;11.566;2024-03-02T07:42:19;6.00;76.60
356;DHT22;62514;48.112;11.566;2024-03-02T07:44:45;6.00;76.20
356;DHT22;62514;48.112;11.566;2024-03-02T07:47:11;6.10;77.10
356;DHT22;62514;48.112;11.566;2024-03-02T07:49:37;6.30;77.50
356;DHT22;62514;48.112;11.566;2024-03-02T07:52:03;6.50;77.90
356;DHT22;62514;48.112;11.566;2024-03-02T07:54:29;6.70;77.00
356;DHT22;62514;48.112;11.566;2024-03-02T07:56:55;6.90;76.00
356;DHT22;62514;48.112;11.566;2024-03-02T07:59:21;7.00;72.30
356;DHT22;62514;48.112;11.566;2024-03-02T08:01:49;7.40;70.90
356;DHT22;62514;48.112;11.566;2024-03-02T08:04:16;7.70;66.80
356;DHT22;62514;48.112;11.566;2024-03-02T08:06:42;8.00;65.70
356;DHT22;62514;48.112;11.566;2024-03-02T08:09:08;8.40;62.80
356;DHT22;62514;48.112;11.566;2024-03-02T08:11:36;8.80;60.80
356;DHT22;62514;48.112;11.566;2024-03-02T08:14:05;9.00;56.10
356;DHT22;62514;48.112;11.566;2024-03-02T08:16:31;9.20;54.10
356;DHT22;62514;48.112;11.566;2024-03-02T08:18:59;9.30;51.40
356;DHT22;62514;48.112;11.566;2024-03-02T08:21:25;9.30;51.40
356;DHT22;62514;48.112;11.566;2024-03-02T08:23:51;9.40;52.20
356;DHT22;62514;48.112;11.566;2024-03-02T08:26:17;9.50;50.40
356;DHT22;62514;48.112;11.566;2024-03-02T08:28:43;9.70;50.00
356;DHT22;62514;48.112;11.566;2024-03-02T08:31:10;10.00;49.00
356;DHT22;62514;48.112;11.566;2024-03-02T08:33:36;10.30;46.60
356;DHT22;62514;48.112;11.566;2024-03-02T08:36:02;10.50;45.00
356;DHT22;62514;48.112;11.566;2024-03-02T08:38:28;10.70;43.60
356;DHT22;62514;48.112;11.566;2024-03-02T08:40:54;10.80;41.50
356;DHT22;62514;48.112;11.566;2024-03-02T08:43:20;10.70;39.90
356;DHT22;62514;48.112;11.566;2024-03-02T08:45:48;10.60;40.60
356;DHT22;62514;48.112;11.566;2024-03-02T08:48:14;10.50;42.40
356;DHT22;62514;48.112;11.566;2024-03-02T08:50:40;10.60;42.70
356;DHT22;62514;48.112;11.566;2024-03-02T08:53:06;10.70;42.50
356;DHT22;62514;48.112;11.566;2024-03-02T08:55:32;10.80;41.10
356;DHT22;62514;48.112;11.566;2024-03-02T08:57:58;10.90;40.90
356;DHT22;62514;48.112;11.566;2024-03-02T09:00:24;10.80;39.60
356;DHT22;62514;48.112;11.566;2024-03-02T09:02:50;10.80;40.30
356;DHT22;62514;48.112;11.566;2024-03-02T09:05:16;10.90;41.30
356;DHT22;62514;48.112;11.566;2024-03-02T09:07:42;11.10;39.10
356;DHT22;62514;48.112;11.566;2024-03-02T09:10:09;11.30;38.40
356;DHT22;62514;48.112;11.566;2024-03-02T09:12:35;11.50;38.50
356;DHT22;62514;48.112;11.566;2024-03-02T09:15:01;11.60;36.90
356;DHT22;62514;48.112;11.566;2024-03-02T09:17:29;11.60;37.50
356;DHT22;62514;48.112;11.566;2024-03-02T09:19:55;11.50;36.80
356;DHT22;62514;48.112;11.566;2024-03-02T09:22:21;11.60;36.20
356;DHT22;62514;48.112;11.566;2024-03-02T09:24:47;11.50;37.70
356;DHT22;62514;48.112;11.566;2024-03-02T09:27:13;11.40;38.30
356;DHT22;62514;48.112;11.566;2024-03-02T09:29:39;11.30;38.40
356;DHT22;62514;48.112;11.566;2024-03-02T09:32:06;11.20;40.60
356;DHT22;62514;48.112;11.566;2024-03-02T09:34:32;11.30;39.90
356;DHT22;62514;48.112;11.566;2024-03-02T09:36:58;11.40;40.40
356;DHT22;62514;48.112;11.566;2024-03-02T09:39:24;11.60;36.50
356;DHT22;62514;48.112;11.566;2024-03-02T09:41:51;11.70;35.80
356;DHT22;62514;48.112;11.566;2024-03-02T09:44:17;11.80;36.60
356;DHT22;62514;48.112;11.566;2024-03-02T09:46:43;12.00;34.70
356;DHT22;62514;48.112;11.566;2024-03-02T09:49:10;12.20;33.80
356;DHT22;62514;48.112;11.566;2024-03-02T09:51:37;12.20;30.70
356;DHT22;62514;48.112;11.566;2024-03-02T09:54:04;11.90;31.70
356;DHT22;62514;48.112;11.566;2024-03-02T09:56:30;11.80;33.80
356;DHT22;62514;48.112;11.566;2024-03-02T09:58:56;11.70;32.90
356;DHT22;62514;48.112;11.566;2024-03-02T10:01:22;11.90;33.80
356;DHT22;62514;48.112;11.566;2024-03-02T10:03:48;12.30;31.20
356;DHT22;62514;48.112;11.566;2024-03-02T10:06:25;12.50;27.90
356;DHT22;62514;48.112;11.566;2024-03-02T10:08:53;12.70;26.80
356;DHT22;62514;48.112;11.566;2024-03-02T10:11:30;13.00;28.50
356;DHT22;62514;48.112;11.566;2024-03-02T10:14:08;13.40;23.20
356;DHT22;62514;48.112;11.566;2024-03-02T10:16:35;13.50;19.90
356;DHT22;62514;48.112;11.566;2024-03-02T10:21:43;13.90;17.60
356;DHT22;62514;48.112;11.566;2024-03-02T10:24:09;14.10;17.70
356;DHT22;62514;48.112;11.566;2024-03-02T10:26:35;14.10;16.20
356;DHT22;62514;48.112;11.566;2024-03-02T10:29:00;14.20;17.30
356;DHT22;62514;48.112;11.566;2024-03-02T10:31:28;14.40;16.70
356;DHT22;62514;48.112;11.566;2024-03-02T10:33:54;14.60;14.10
356;DHT22;62514;48.112;11.566;2024-03-02T10:36:21;14.90;1.00
356;DHT22;62514;48.112;11.566;2024-03-02T10:38:47;15.10;1.00
356;DHT22;62514;48.112;11.566;2024-03-02T10:41:18;15.30;1.00
356;DHT22;62514;48.112;11.566;2024-03-02T10:43:45;15.60;1.00
356;DHT22;62514;48.112;11.566;2024-03-02T10:46:13;16.30;1.00
356;DHT22;62514;48.112;11.566;2024-03-02T10:48:41;17.00;1.00
356;DHT22;62514;48.112;11.566;2024-03-02T10:51:10;17.20;1.00
356;DHT22;62514;48.112;11.566;2024-03-02T10:53:35;17.90;1.00
356;DHT22;62514;48.112;11.566;2024-03-02T10:56:03;18.10;1.00
356;DHT22;62514;48.112;11.566;2024-03-02T10:58:33;18.10;1.00
356;DHT22;62514;48.112;11.566;2024-03-02T11:01:02;17.80;1.00
356;DHT22;62514;48.112;11.566;2024-03-02T11:03:33;17.80;99.90
356;DHT22;62514;48.112;11.566;2024-03-02T11:06:00;18.50;99.90
356;DHT22;62514;48.112;11.566;2024-03-02T11:08:34;18.70;99.90
356;DHT22;62514;48.112;11.566;2024-03-02T11:11:13;19.30;99.90
356;DHT22;62514;48.112;11.566;2024-03-02T11:13:42;20.00;99.90
356;DHT22;62514;48.112;11.566;2024-03-02T11:16:39;20.40;99.90
356;DHT22;62514;48.112;11.566;2024-03-02T11:19:15;21.40;99.90
356;DHT22;62514;48.112;11.566;2024-03-02T11:21:42;21.00;99.90
356;DHT22;62514;48.112;11.566;2024-03-02T11:26:53;20.90;99.90
356;DHT22;62514;48.112;11.566;2024-03-02T11:32:17;22.20;99.90
356;DHT22;62514;48.112;11.566;2024-03-02T11:34:46;23.10;1.90
356;DHT22;62514;48.112;11.566;2024-03-02T11:37:13;23.20;99.90
356;DHT22;62514;48.112;11.566;2024-03-02T11:39:40;23.40;5.30
356;DHT22;62514;48.112;11.566;2024-03-02T11:42:11;23.50;99.90
356;DHT22;62514;48.112;11.566;2024-03-02T11:44:38;23.40;99.90
356;DHT22;62514;48.112;11.566;2024-03-02T11:47:09;23.60;99.90
356;DHT22;62514;48.112;11.566;2024-03-02T11:49:43;23.60;99.90
356;DHT22;62514;48.112;11.566;2024-03-02T11:52:12;24.00;1.00
356;DHT22;62514;48.112;11.566;2024-03-02T11:54:39;23.20;1.00
356;DHT22;62514;48.112;11.566;2024-03-02T11:57:06;22.70;99.90
356;DHT22;62514;48.112;11.566;2024-03-02T11:59:33;23.20;99.90
356;DHT22;62514;48.112;11.566;2024-03-02T12:01:59;23.70;99.90
356;DHT22;62514;48.112;11.566;2024-03-02T12:09:22;23.60;1.00
356;DHT22;62514;48.112;11.566;2024-03-02T12:11:50;23.00;1.00
356;DHT22;62514;48.112;11.566;2024-03-02T12:14:26;23.20;99.90
356;DHT22;62514;48.112;11.566;2024-03-02T12:16:55;22.80;99.90
356;DHT22;62514;48.112;11.566;2024-03-02T12:19:21;23.50;99.90
356;DHT22;62514;48.112;11.566;2024-03-02T12:21:47;24.50;99.90
356;DHT22;62514;48.112;11.566;2024-03-02T12:24:13;25.10;99.90
356;DHT22;62514;48.112;11.566;2024-03-02T12:26:40;25.80;99.90
356;DHT22;62514;48.112;11.566;2024-03-02T12:29:06;25.60;99.90
356;DHT22;62514;48.112;11.566;2024-03-02T12:31:32;25.60;99.90
356;DHT22;62514;48.112;11.566;2024-03-02T12:33:58;25.80;99.90
356;DHT22;62514;48.112;11.566;2024-03-02T12:36:24;26.10;7.40
356;DHT22;62514;48.112;11.566;2024-03-02T12:38:53;24.90;1.00
356;DHT22;62514;48.112;11.566;2024-03-02T12:41:19;23.80;1.00
356;DHT22;62514;48.112;11.566;2024-03-02T12:43:44;23.50;99.90
356;DHT22;62514;48.112;11.566;2024-03-02T12:46:11;24.00;1.00
356;DHT22;62514;48.112;11.566;2024-03-02T12:48:37;24.20;1.00
356;DHT22;62514;48.112;11.566;2024-03-02T12:51:05;23.50;83.10
356;DHT22;62514;48.112;11.566;2024-03-02T12:53:31;22.90;1.00
356;DHT22;62514;48.112;11.566;2024-03-02T12:55:57;22.80;7.00
356;DHT22;62514;48.112;11.566;2024-03-02T12:58:23;23.00;1.00
356;DHT22;62514;48.112;11.566;2024-03-02T13:00:49;22.50;1.00
356;DHT22;62514;48.112;11.566;2024-03-02T13:03:17;22.50;1.00
356;DHT22;62514;48.112;11.566;2024-03-02T13:05:48;22.90;1.00
356;DHT22;62514;48.112;11.566;2024-03-02T13:08:15;23.20;1.00
356;DHT22;62514;48.112;11.566;2024-03-02T13:10:42;23.30;1.00
356;DHT22;62514;48.112;11.566;2024-03-02T13:13:08;23.50;1.00
356;DHT22;62514;48.112;11.566;2024-03-02T13:15:34;24.00;1.00
356;DHT22;62514;48.112;11.566;2024-03-02T13:18:00;23.30;1.00
356;DHT22;62514;48.112;11.566;2024-03-02T13:20:30;23.10;1.00
356;DHT22;62514;48.112;11.566;2024-03-02T13:22:57;23.60;1.00
356;DHT22;62514;48.112;11.566;2024-03-02T13:25:23;24.20;1.00
356;DHT22;62514;48.112;11.566;2024-03-02T13:27:49;25.20;99.90
356;DHT22;62514;48.112;11.566;2024-03-02T13:30:15;25.60;99.90
356;DHT22;62514;48.112;11.566;2024-03-02T13:32:41;25.40;99.90
356;DHT22;62514;48.112;11.566;2024-03-02T13:35:07;25.50;99.90
356;DHT22;62514;48.112;11.566;2024-03-02T13:37:33;25.20;99.90
356;DHT22;62514;48.112;11.566;2024-03-02T13:40:00;24.90;99.90
356;DHT22;62514;48.112;11.566;2024-03-02T13:42:26;25.30;99.90
356;DHT22;62514;48.112;11.566;2024-03-02T13:44:53;23.80;99.90
356;DHT22;62514;48.112;11.566;2024-03-02T13:47:19;23.60;99.90
356;DHT22;62514;48.112;11.566;2024-03-02T13:49:45;23.60;99.90
356;DHT22;62514;48.112;11.566;2024-03-02T13:52:12;23.10;99.90
356;DHT22;62514;48.112;11.566;2024-03-02T13:54:47;22.50;99.90
356;DHT22;62514;48.112;11.566;2024-03-02T13:57:13;23.20;99.90
356;DHT22;62514;48.112;11.566;2024-03-02T13:59:41;22.50;99.90
356;DHT22;62514;48.112;11.566;2024-03-02T14:02:08;22.50;99.90
356;DHT22;62514;48.112;11.566;2024-03-02T14:04:34;22.90;99.90
356;DHT22;62514;48.112;11.566;2024-03-02T14:07:01;22.90;99.90
356;DHT22;62514;48.112;11.566;2024-03-02T14:09:27;23.00;99.90
356;DHT22;62514;48.112;11.566;2024-03-02T14:11:54;22.70;99.90
356;DHT22;62514;48.112;11.566;2024-03-02T14:14:21;23.20;99.90
356;DHT22;62514;48.112;11.566;2024-03-02T14:16:47;23.60;99.90
356;DHT22;62514;48.112;11.566;2024-03-02T14:19:13;23.70;99.90
356;DHT22;62514;48.112;11.566;2024-03-02T14:21:42;23.00;99.90
356;DHT22;62514;48.112;11.566;2024-03-02T14:24:08;22.90;99.90
356;DHT22;62514;48.112;11.566;2024-03-02T14:26:35;23.10;99.90
356;DHT22;62514;48.112;11.566;2024-03-02T14:29:03;22.20;99.90
356;DHT22;62514;48.112;11.566;2024-03-02T14:31:29;22.40;99.90
356;DHT22;62514;48.112;11.566;2024-03-02T14:33:57;23.10;99.90
356;DHT22;62514;48.112;11.566;2024-03-02T14:36:23;23.50;99.90
356;DHT22;62514;48.112;11.566;2024-03-02T14:38:49;22.30;99.90
356;DHT22;62514;48.112;11.566;2024-03-02T14:41:15;19.90;99.90
356;DHT22;62514;48.112;11.566;2024-03-02T14:43:41;17.80;99.90
356;DHT22;62514;48.112;11.566;2024-03-02T14:46:07;16.60;99.90
356;DHT22;62514;48.112;11.566;2024-03-02T14:48:36;16.00;99.90
356;DHT22;62514;48.112;11.566;2024-03-02T14:51:02;15.40;99.90
356;DHT22;62514;48.112;11.566;2024-03-02T14:53:28;15.10;99.90
356;DHT22;62514;48.112;11.566;2024-03-02T14:55:54;14.80;99.90
356;DHT22;62514;48.112;11.566;2024-03-02T14:58:21;14.80;99.90
356;DHT22;62514;48.112;11.566;2024-03-02T15:00:47;14.60;99.90
356;DHT22;62514;48.112;11.566;2024-03-02T15:03:13;14.30;99.90
356;DHT22;62514;48.112;11.566;2024-03-02T15:05:39;13.90;99.90
356;DHT22;62514;48.112;11.566;2024-03-02T15:08:06;13.70;99.90
356;DHT22;62514;48.112;11.566;2024-03-02T15:10:32;13.70;99.90
356;DHT22;62514;48.112;11.566;2024-03-02T15:12:58;13.50;99.90
356;DHT22;62514;48.112;11.566;2024-03-02T15:15:24;13.40;99.90
356;DHT22;62514;48.112;11.566;2024-03-02T15:17:50;13.40;99.90
356;DHT22;62514;48.112;11.566;2024-03-02T15:20:18;13.40;99.90
356;DHT22;62514;48.112;11.566;2024-03-02T15:22:46;13.40;99.90
356;DHT22;62514;48.112;11.566;2024-03-02T15:25:12;13.40;99.90
356;DHT22;62514;48.112;11.566;2024-03-02T15:27:38;13.50;99.90
356;DHT22;62514;48.112;11.566;2024-03-02T15:30:07;13.50;99.90
356;DHT22;62514;48.112;11.566;2024-03-02T15:32:33;13.60;99.90
356;DHT22;62514;48.112;11.566;2024-03-02T15:35:00;13.50;22.70
356;DHT22;62514;48.112;11.566;2024-03-02T15:37:26;13.30;99.90
356;DHT22;62514;48.112;11.566;2024-03-02T15:39:52;13.30;99.90
356;DHT22;62514;48.112;11.566;2024-03-02T15:42:17;13.30;99.90
356;DHT22;62514;48.112;11.566;2024-03-02T15:44:43;13.20;99.90
356;DHT22;62514;48.112;11.566;2024-03-02T15:47:10;13.20;99.90
356;DHT22;62514;48.112;11.566;2024-03-02T15:49:35;13.10;99.90
356;DHT22;62514;48.112;11.566;2024-03-02T15:52:01;13.00;99.90
356;DHT22;62514;48.112;11.566;2024-03-02T15:54:28;13.00;99.90
356;DHT22;62514;48.112;11.566;2024-03-02T15:56:54;12.90;99.90
356;DHT22;62514;48.112;11.566;2024-03-02T15:59:20;12.90;99.90
356;DHT22;62514;48.112;11.566;2024-03-02T16:01:46;12.90;99.90
356;DHT22;62514;48.112;11.566;2024-03-02T16:04:12;12.80;99.90
356;DHT22;62514;48.112;11.566;2024-03-02T16:06:38;12.70;99.90
356;DHT22;62514;48.112;11.566;2024-03-02T16:09:04;12.70;99.90